Concord, CA (94521)

7:26 PM PST on December 19, 2014 (GMT -0800)
Kirker Pass Rd West of Concord Pavilion | Change Station
CLOSE
Current Station
Personal Weather Station
Location: Concord, CA
Elevation: 292 ft
Nearby Weather Stations

Elev 292 ft 37.96 °N, 121.96 °W | Updated 4 seconds ago

Overcast
Overcast
51.9 °F
Feels Like 51.9 °F
N
0.0
Wind Variable Wind from SW
Gusts 1.0 mph

Today
High -- | Low -- °F
--% Chance of Precip.
Yesterday
High -- | Low -- °F
Precip. -- in
7:19 AM 4:51 PM
Waning Crescent, 5% visible
Pressure 30.10 in
Visibility 1.5 miles
Clouds Overcast 300 ft
Dew Point 51 °F
Humidity 97%
Rainfall 0.49 in
Snow Depth Not available.
UV 0 out of 12
Pollen 2.00 out of 12
Air Quality Not available.
Flu Activity Not available.
METAR KCCR 200253Z 00000KT 1 1/2SM BR OVC003 12/11 A3014 RMK AO2 SLP191 60001 T01170111 58003

More Conditions Fewer Conditions

Pressure 30.10 in
Visibility 1.5 miles
Clouds Overcast 300 ft
Dew Point 51 °F
Humidity 97%
Rainfall 0.49 in
Snow Depth Not available.
UV 0 out of 12
Pollen 2.00 out of 12
Air Quality Not available.
Flu Activity Not available.
METAR KCCR 200253Z 00000KT 1 1/2SM BR OVC003 12/11 A3014 RMK AO2 SLP191 60001 T01170111 58003

More Conditions Fewer Conditions

10-Day Weather Forecast

Almanac

Astronomy

Dec. 19, 2014 Rise Set
Actual Time
Civil Twilight
Nautical Twilight
Astronomical Twilight
Moon
Length of Visible Light
Length of Day
Tomorrow will be .
, % of the Moon is Illuminated

Today's Extremes

State Highs State Lows

Community

WunderPhotos

Upload Photos

1,779,123 photos uploaded!

WunderBlogs® & News

Nearby

Air Quality

  Air Quality AQ Index Pollutant
Not available.

Snow Depth

Station Depth Elevation

Earthquake Activity

City Distance Mag. Time & Date
Minimum magnitude displayed is 2.5.

Coastal Water Temperatures

Place Temperature

Nearby Weather Stations